Terminal Aerodrome Forecast
Issued by NWS

Home | Current Version | Previous Version | Text Only | Print | Product List | Glossary On
Versions: 1 2 3 4 5 6 7 8 9 10 11 12
279
FTUS42 TJSJ 261749
TAFISX
TAF
TISX 261749Z 2618/2718 11011KT P6SM VCSH SCT025 SCT035
     FM262300 06006KT P6SM SCT030
     FM271300 11012KT P6SM FEW030 SCT060=

USA.gov is the U.S. government's official web portal to all federal, state and local government web resources and services.